createdAt,value
2023-07-12T00:03:27.645Z,6.95
2023-07-12T00:08:24.561Z,7.25
2023-07-12T00:13:17.208Z,7.63
2023-07-12T00:18:27.587Z,7.15
2023-07-12T00:23:20.658Z,6.50
2023-07-12T00:28:18.320Z,7.82
2023-07-12T00:33:11.640Z,6.13
2023-07-12T00:38:03.891Z,6.10
2023-07-12T00:43:05.033Z,6.93
2023-07-12T00:47:56.848Z,6.53
2023-07-12T00:52:48.820Z,6.13
2023-07-12T00:57:40.716Z,6.55
2023-07-12T01:02:32.677Z,6.72
2023-07-12T01:07:26.664Z,6.38
2023-07-12T01:12:18.456Z,6.72
2023-07-12T01:17:10.369Z,6.10
2023-07-12T01:22:03.281Z,7.43
2023-07-12T01:27:00.230Z,9.02
2023-07-12T01:31:54.860Z,8.95
2023-07-12T01:36:47.317Z,7.95
2023-07-12T01:41:40.830Z,7.80
2023-07-12T01:46:33.611Z,7.50
2023-07-12T01:51:25.587Z,8.10
2023-07-12T01:56:18.310Z,8.52
2023-07-12T02:01:10.533Z,8.40
2023-07-12T02:06:03.223Z,8.68
2023-07-12T02:10:55.185Z,8.40
2023-07-12T02:15:47.225Z,8.52
2023-07-12T02:20:39.225Z,7.05
2023-07-12T02:25:31.110Z,8.73
2023-07-12T02:30:26.478Z,7.45
2023-07-12T02:35:20.056Z,7.20
2023-07-12T02:40:13.260Z,7.60
2023-07-12T02:45:06.406Z,7.47
2023-07-12T02:49:58.155Z,8.45
2023-07-12T02:54:49.991Z,9.25
2023-07-12T02:59:42.386Z,8.60
2023-07-12T03:04:34.540Z,7.13
2023-07-12T03:09:26.483Z,7.40
2023-07-12T03:14:19.971Z,7.65
2023-07-12T03:19:12.248Z,7.70
2023-07-12T03:24:04.091Z,8.88
2023-07-12T03:28:57.368Z,10.25
2023-07-12T03:33:49.944Z,9.98
2023-07-12T03:38:42.137Z,9.18
2023-07-12T03:43:34.855Z,8.30
2023-07-12T03:48:27.581Z,9.38
2023-07-12T03:53:19.911Z,8.90
2023-07-12T03:58:17.609Z,10.40
2023-07-12T04:03:09.768Z,11.35
2023-07-12T04:08:01.634Z,11.13
2023-07-12T04:12:53.429Z,11.60
2023-07-12T04:17:45.426Z,11.57
2023-07-12T04:22:37.354Z,12.00
2023-07-12T04:27:29.161Z,11.85
2023-07-12T04:32:21.005Z,13.20
2023-07-12T04:37:12.802Z,12.75
2023-07-12T04:42:04.841Z,14.52
2023-07-12T04:46:56.930Z,11.50
2023-07-12T04:51:50.631Z,11.07
2023-07-12T04:56:42.401Z,11.45
2023-07-12T05:01:34.489Z,11.00
2023-07-12T05:06:26.393Z,10.23
2023-07-12T05:11:18.318Z,11.00
2023-07-12T05:16:12.528Z,11.68
2023-07-12T05:21:04.352Z,10.52
2023-07-12T05:25:56.469Z,10.80
2023-07-12T05:30:49.812Z,11.80
2023-07-12T05:35:42.059Z,10.68
2023-07-12T05:40:33.912Z,10.45
2023-07-12T05:45:26.346Z,9.25
2023-07-12T05:50:20.360Z,11.18
2023-07-12T05:55:13.630Z,10.55
2023-07-12T06:00:06.607Z,9.88
2023-07-12T06:04:58.383Z,9.65
2023-07-12T06:09:53.511Z,10.43
2023-07-12T06:14:45.362Z,8.23
2023-07-12T06:19:37.270Z,9.23
2023-07-12T06:24:30.386Z,8.73
2023-07-12T06:29:23.626Z,9.30
2023-07-12T06:34:15.446Z,10.45
2023-07-12T06:39:08.664Z,10.73
2023-07-12T06:44:02.822Z,10.57
2023-07-12T06:48:54.811Z,10.25
2023-07-12T06:53:46.732Z,11.15
2023-07-12T06:58:38.952Z,11.18
2023-07-12T07:03:31.220Z,11.27
2023-07-12T07:08:23.501Z,12.18
2023-07-12T07:13:18.416Z,10.80
2023-07-12T07:18:12.006Z,11.32
2023-07-12T07:23:04.727Z,10.80
2023-07-12T07:33:29.143Z,9.83
2023-07-12T07:38:27.650Z,9.65
2023-07-12T07:43:20.867Z,10.38
2023-07-12T07:48:13.140Z,11.85
2023-07-12T07:53:06.148Z,11.27
2023-07-12T07:57:58.233Z,9.95
2023-07-12T08:02:50.240Z,11.27
2023-07-12T08:07:48.787Z,11.52
2023-07-12T08:12:41.009Z,12.90
2023-07-12T08:17:33.394Z,11.35
2023-07-12T08:22:26.537Z,12.40
2023-07-12T08:27:18.419Z,13.10
2023-07-12T08:32:11.641Z,14.13
2023-07-12T08:37:03.857Z,11.93
2023-07-12T08:41:56.288Z,11.52
2023-07-12T08:46:54.979Z,11.35
2023-07-12T08:51:47.527Z,11.10
2023-07-12T08:56:39.501Z,11.13
2023-07-12T09:01:51.232Z,11.30
2023-07-12T09:06:43.307Z,10.35
2023-07-12T09:11:35.384Z,10.45
2023-07-12T09:16:36.404Z,9.02
2023-07-12T09:21:32.622Z,9.20
2023-07-12T09:26:29.084Z,9.10
2023-07-12T09:31:28.962Z,9.90
2023-07-12T09:36:21.253Z,9.45
2023-07-12T09:41:24.239Z,8.70
2023-07-12T09:46:49.648Z,9.18
2023-07-12T09:51:42.338Z,8.52
2023-07-12T09:57:02.845Z,9.80
2023-07-12T10:02:03.825Z,8.70
2023-07-12T10:06:56.964Z,9.07
2023-07-12T10:12:01.730Z,8.30
2023-07-12T10:16:55.780Z,8.02
2023-07-12T10:21:49.896Z,8.05
2023-07-12T10:26:44.406Z,8.82
2023-07-12T10:31:50.135Z,9.07
2023-07-12T10:36:45.055Z,7.78
2023-07-12T10:41:45.777Z,7.95
2023-07-12T10:46:42.576Z,7.35
2023-07-12T10:51:42.442Z,7.63
2023-07-12T10:56:52.782Z,8.15
2023-07-12T11:01:44.762Z,7.65
2023-07-12T11:06:37.030Z,7.38
2023-07-12T11:11:42.672Z,8.25
2023-07-12T11:16:45.414Z,7.00
2023-07-12T11:21:52.945Z,7.38
2023-07-12T11:31:51.049Z,7.53
2023-07-12T11:36:48.676Z,7.22
2023-07-12T11:41:42.154Z,7.53
2023-07-12T11:46:36.453Z,7.47
2023-07-12T11:51:39.268Z,8.20
2023-07-12T11:56:31.082Z,7.50
2023-07-12T12:01:22.995Z,6.72
2023-07-12T12:06:15.247Z,7.55
2023-07-12T12:11:09.066Z,7.43
2023-07-12T12:16:18.622Z,6.90
2023-07-12T12:21:18.497Z,6.90
2023-07-12T12:26:20.968Z,6.75
2023-07-12T12:31:19.954Z,7.43
2023-07-12T12:36:26.522Z,7.55
2023-07-12T12:41:18.456Z,5.77
2023-07-12T12:46:21.303Z,7.60
2023-07-12T13:06:05.990Z,6.93
2023-07-12T13:20:49.228Z,7.45
2023-07-12T13:25:42.461Z,6.90
2023-07-12T13:30:39.396Z,7.07
2023-07-12T13:40:34.830Z,8.23
2023-07-12T13:45:30.465Z,7.22
2023-07-12T13:50:22.528Z,7.07
2023-07-12T13:55:18.824Z,7.10
2023-07-12T14:00:23.526Z,6.70
2023-07-12T14:10:22.602Z,6.03
2023-07-12T14:15:22.920Z,7.28
2023-07-12T14:20:15.334Z,7.13
2023-07-12T14:25:07.617Z,7.03
2023-07-12T14:34:55.396Z,7.68
2023-07-12T14:39:47.601Z,7.70
2023-07-12T14:44:39.476Z,7.55
2023-07-12T14:49:31.253Z,8.20
2023-07-12T14:54:23.044Z,7.28
2023-07-12T14:59:15.487Z,7.45
2023-07-12T15:04:13.260Z,6.03
2023-07-12T15:09:08.617Z,8.13
2023-07-12T15:14:10.497Z,8.85
2023-07-12T15:23:54.751Z,7.28
2023-07-12T15:28:47.752Z,7.38
2023-07-12T15:33:39.838Z,7.40
2023-07-12T15:38:32.106Z,7.57
2023-07-12T15:43:37.276Z,7.50
2023-07-12T15:48:32.057Z,8.38
2023-07-12T15:53:26.654Z,8.98
2023-07-12T15:58:23.549Z,8.10
2023-07-12T16:03:21.469Z,7.93
2023-07-12T16:08:13.326Z,7.57
2023-07-12T16:13:05.807Z,8.07
2023-07-12T16:17:57.764Z,8.60
2023-07-12T16:22:49.796Z,7.90
2023-07-12T16:27:44.463Z,9.68
2023-07-12T16:32:36.292Z,8.73
2023-07-12T16:37:28.212Z,8.60
2023-07-12T16:42:28.902Z,8.85
2023-07-12T16:47:20.708Z,7.90
2023-07-12T16:52:15.355Z,7.70
2023-07-12T16:57:17.859Z,8.20
2023-07-12T17:02:36.133Z,7.10
2023-07-12T17:07:28.449Z,7.70
2023-07-12T17:12:27.187Z,6.72
2023-07-12T17:17:20.472Z,7.10
2023-07-12T17:22:15.301Z,6.18
2023-07-12T17:27:18.889Z,8.70
2023-07-12T17:32:19.689Z,7.35
2023-07-12T17:37:16.181Z,7.55
2023-07-12T17:42:11.913Z,7.13
2023-07-12T17:47:04.813Z,7.68
2023-07-12T17:51:57.120Z,6.63
2023-07-12T17:56:48.929Z,7.65
2023-07-12T18:01:40.920Z,7.32
2023-07-12T18:06:35.724Z,6.95
2023-07-12T18:11:32.952Z,7.20
2023-07-12T18:16:26.103Z,8.15
2023-07-12T18:21:18.676Z,7.35
2023-07-12T18:26:12.449Z,7.72
2023-07-12T18:31:06.510Z,7.25
2023-07-12T18:35:58.432Z,6.47
2023-07-12T18:40:50.813Z,7.13
2023-07-12T18:45:42.651Z,7.45
2023-07-12T18:50:35.060Z,7.32
2023-07-12T18:55:26.902Z,6.85
2023-07-12T19:00:18.999Z,7.72
2023-07-12T19:05:30.715Z,7.25
2023-07-12T19:10:23.556Z,6.28
2023-07-12T19:15:25.338Z,7.00
2023-07-12T19:20:18.927Z,7.07
2023-07-12T19:25:26.293Z,6.80
2023-07-12T19:30:21.057Z,7.00
2023-07-12T19:35:24.803Z,7.28
2023-07-12T19:40:17.638Z,7.55
2023-07-12T19:45:17.406Z,7.85
2023-07-12T19:50:10.378Z,7.13
2023-07-12T19:55:02.359Z,8.30
2023-07-12T19:59:54.223Z,7.93
2023-07-12T20:04:46.081Z,7.95
2023-07-12T20:09:38.077Z,8.23
2023-07-12T20:14:32.375Z,7.28
2023-07-12T20:19:24.194Z,8.15
2023-07-12T20:24:16.075Z,7.22
2023-07-12T20:29:08.139Z,7.60
2023-07-12T20:34:00.689Z,8.27
2023-07-12T20:38:52.641Z,7.75
2023-07-12T20:43:44.442Z,7.43
2023-07-12T20:48:37.885Z,7.28
2023-07-12T20:53:31.328Z,7.93
2023-07-12T20:58:23.138Z,7.60
2023-07-12T21:03:15.551Z,7.43
2023-07-12T21:08:07.430Z,7.00
2023-07-12T21:12:59.226Z,7.90
2023-07-12T21:17:51.153Z,7.78
2023-07-12T21:22:43.091Z,8.20
2023-07-12T21:27:36.018Z,8.30
2023-07-12T21:32:28.006Z,7.38
2023-07-12T21:37:19.814Z,8.55
2023-07-12T21:42:11.999Z,7.55
2023-07-12T21:47:04.743Z,8.93
2023-07-12T21:51:56.661Z,8.07
2023-07-12T21:56:48.452Z,8.45
2023-07-12T22:01:40.287Z,8.50
2023-07-12T22:06:32.144Z,8.98
2023-07-12T22:11:25.378Z,8.55
2023-07-12T22:16:18.482Z,8.00
2023-07-12T22:21:13.833Z,9.48
2023-07-12T22:26:23.588Z,8.35
2023-07-12T22:31:15.569Z,8.00
2023-07-12T22:36:07.952Z,8.15
2023-07-12T22:41:01.663Z,8.05
2023-07-12T22:45:59.030Z,7.60
2023-07-12T22:50:50.802Z,8.27
2023-07-12T22:55:42.976Z,7.95
2023-07-12T23:00:35.491Z,9.10
2023-07-12T23:05:28.247Z,9.93
2023-07-12T23:10:22.700Z,10.18
2023-07-12T23:15:16.231Z,9.85
2023-07-12T23:20:09.451Z,9.32
2023-07-12T23:25:01.241Z,6.60
2023-07-12T23:29:53.121Z,5.90
2023-07-12T23:34:44.902Z,5.72
2023-07-12T23:39:41.099Z,4.55
2023-07-12T23:44:36.090Z,4.45
2023-07-12T23:49:27.983Z,4.25
2023-07-12T23:54:20.204Z,4.00
2023-07-12T23:59:14.126Z,4.43
